sensor_id;sensor_type;location;lat;lon;timestamp;P1;durP1;ratioP1;P2;durP2;ratioP2
21272;SDS011;36726;52.328;10.552;2022-08-19T00:01:43;9.25;;;5.25;;
21272;SDS011;36726;52.328;10.552;2022-08-19T00:04:20;7.30;;;5.20;;
21272;SDS011;36726;52.328;10.552;2022-08-19T00:06:56;8.15;;;5.30;;
21272;SDS011;36726;52.328;10.552;2022-08-19T00:09:23;8.43;;;5.70;;
21272;SDS011;36726;52.328;10.552;2022-08-19T00:11:50;8.35;;;5.30;;
21272;SDS011;36726;52.328;10.552;2022-08-19T00:14:17;7.40;;;5.70;;
21272;SDS011;36726;52.328;10.552;2022-08-19T00:16:45;8.90;;;5.68;;
21272;SDS011;36726;52.328;10.552;2022-08-19T00:19:13;8.88;;;5.25;;
21272;SDS011;36726;52.328;10.552;2022-08-19T00:21:41;9.35;;;5.78;;
21272;SDS011;36726;52.328;10.552;2022-08-19T00:24:09;13.18;;;5.70;;
21272;SDS011;36726;52.328;10.552;2022-08-19T00:26:37;10.02;;;6.05;;
21272;SDS011;36726;52.328;10.552;2022-08-19T00:29:05;10.45;;;5.90;;
21272;SDS011;36726;52.328;10.552;2022-08-19T00:31:33;7.10;;;5.40;;
21272;SDS011;36726;52.328;10.552;2022-08-19T00:34:00;6.88;;;5.53;;
21272;SDS011;36726;52.328;10.552;2022-08-19T00:36:26;7.18;;;5.40;;
21272;SDS011;36726;52.328;10.552;2022-08-19T00:38:54;9.93;;;6.43;;
21272;SDS011;36726;52.328;10.552;2022-08-19T00:41:23;11.60;;;6.63;;
21272;SDS011;36726;52.328;10.552;2022-08-19T00:44:25;8.68;;;5.78;;
21272;SDS011;36726;52.328;10.552;2022-08-19T00:46:52;6.50;;;5.45;;
21272;SDS011;36726;52.328;10.552;2022-08-19T00:52:26;9.15;;;5.35;;
21272;SDS011;36726;52.328;10.552;2022-08-19T00:54:56;8.63;;;6.13;;
21272;SDS011;36726;52.328;10.552;2022-08-19T00:57:26;9.52;;;5.70;;
21272;SDS011;36726;52.328;10.552;2022-08-19T00:59:56;7.18;;;5.05;;
21272;SDS011;36726;52.328;10.552;2022-08-19T01:02:29;8.73;;;5.55;;
21272;SDS011;36726;52.328;10.552;2022-08-19T01:04:59;8.55;;;5.65;;
21272;SDS011;36726;52.328;10.552;2022-08-19T01:07:27;10.48;;;5.90;;
21272;SDS011;36726;52.328;10.552;2022-08-19T01:10:01;9.23;;;5.60;;
21272;SDS011;36726;52.328;10.552;2022-08-19T01:12:29;9.68;;;5.70;;
21272;SDS011;36726;52.328;10.552;2022-08-19T01:14:56;10.23;;;5.80;;
21272;SDS011;36726;52.328;10.552;2022-08-19T01:17:24;9.88;;;5.65;;
21272;SDS011;36726;52.328;10.552;2022-08-19T01:19:50;7.18;;;5.38;;
21272;SDS011;36726;52.328;10.552;2022-08-19T01:24:56;8.13;;;4.90;;
21272;SDS011;36726;52.328;10.552;2022-08-19T01:27:24;7.55;;;5.70;;
21272;SDS011;36726;52.328;10.552;2022-08-19T01:29:51;8.80;;;5.20;;
21272;SDS011;36726;52.328;10.552;2022-08-19T01:32:17;10.00;;;5.72;;
21272;SDS011;36726;52.328;10.552;2022-08-19T01:34:59;6.55;;;5.30;;
21272;SDS011;36726;52.328;10.552;2022-08-19T01:37:27;7.93;;;5.53;;
21272;SDS011;36726;52.328;10.552;2022-08-19T01:39:55;7.47;;;5.32;;
21272;SDS011;36726;52.328;10.552;2022-08-19T01:42:21;10.48;;;5.70;;
21272;SDS011;36726;52.328;10.552;2022-08-19T01:44:56;7.47;;;5.15;;
21272;SDS011;36726;52.328;10.552;2022-08-19T01:47:23;8.82;;;5.35;;
21272;SDS011;36726;52.328;10.552;2022-08-19T01:49:50;7.43;;;5.10;;
21272;SDS011;36726;52.328;10.552;2022-08-19T01:52:16;8.00;;;5.10;;
21272;SDS011;36726;52.328;10.552;2022-08-19T01:54:43;6.38;;;4.60;;
21272;SDS011;36726;52.328;10.552;2022-08-19T01:57:10;6.65;;;5.10;;
21272;SDS011;36726;52.328;10.552;2022-08-19T01:59:41;7.20;;;5.20;;
21272;SDS011;36726;52.328;10.552;2022-08-19T02:02:10;11.55;;;5.22;;
21272;SDS011;36726;52.328;10.552;2022-08-19T02:04:37;7.45;;;5.20;;
21272;SDS011;36726;52.328;10.552;2022-08-19T02:07:05;6.55;;;4.63;;
21272;SDS011;36726;52.328;10.552;2022-08-19T02:09:31;10.98;;;5.65;;
21272;SDS011;36726;52.328;10.552;2022-08-19T02:11:58;7.97;;;4.90;;
21272;SDS011;36726;52.328;10.552;2022-08-19T02:14:25;5.95;;;4.88;;
21272;SDS011;36726;52.328;10.552;2022-08-19T02:16:51;6.95;;;4.85;;
21272;SDS011;36726;52.328;10.552;2022-08-19T02:19:18;9.65;;;5.00;;
21272;SDS011;36726;52.328;10.552;2022-08-19T02:21:44;8.13;;;4.60;;
21272;SDS011;36726;52.328;10.552;2022-08-19T02:24:12;10.13;;;4.97;;
21272;SDS011;36726;52.328;10.552;2022-08-19T02:26:39;7.25;;;4.95;;
21272;SDS011;36726;52.328;10.552;2022-08-19T02:29:06;8.90;;;5.63;;
21272;SDS011;36726;52.328;10.552;2022-08-19T02:31:33;7.57;;;5.18;;
21272;SDS011;36726;52.328;10.552;2022-08-19T02:34:00;7.30;;;5.35;;
21272;SDS011;36726;52.328;10.552;2022-08-19T02:36:27;8.65;;;5.43;;
21272;SDS011;36726;52.328;10.552;2022-08-19T02:38:55;7.53;;;5.38;;
21272;SDS011;36726;52.328;10.552;2022-08-19T02:41:25;6.93;;;5.22;;
21272;SDS011;36726;52.328;10.552;2022-08-19T02:43:54;9.07;;;5.30;;
21272;SDS011;36726;52.328;10.552;2022-08-19T02:46:45;7.22;;;5.32;;
21272;SDS011;36726;52.328;10.552;2022-08-19T02:49:13;8.20;;;5.50;;
21272;SDS011;36726;52.328;10.552;2022-08-19T02:51:43;8.10;;;5.80;;
21272;SDS011;36726;52.328;10.552;2022-08-19T02:54:12;10.82;;;5.47;;
21272;SDS011;36726;52.328;10.552;2022-08-19T02:56:40;7.88;;;5.82;;
21272;SDS011;36726;52.328;10.552;2022-08-19T02:59:07;9.88;;;6.38;;
21272;SDS011;36726;52.328;10.552;2022-08-19T03:01:37;10.27;;;6.03;;
21272;SDS011;36726;52.328;10.552;2022-08-19T03:04:10;6.65;;;4.93;;
21272;SDS011;36726;52.328;10.552;2022-08-19T03:06:39;9.20;;;5.90;;
21272;SDS011;36726;52.328;10.552;2022-08-19T03:09:07;7.47;;;5.10;;
21272;SDS011;36726;52.328;10.552;2022-08-19T03:11:34;6.53;;;5.05;;
21272;SDS011;36726;52.328;10.552;2022-08-19T03:14:02;5.88;;;5.03;;
21272;SDS011;36726;52.328;10.552;2022-08-19T03:16:31;7.50;;;5.57;;
21272;SDS011;36726;52.328;10.552;2022-08-19T03:18:59;6.60;;;5.22;;
21272;SDS011;36726;52.328;10.552;2022-08-19T03:21:31;8.68;;;5.65;;
21272;SDS011;36726;52.328;10.552;2022-08-19T03:24:00;6.50;;;4.93;;
21272;SDS011;36726;52.328;10.552;2022-08-19T03:26:29;6.43;;;5.30;;
21272;SDS011;36726;52.328;10.552;2022-08-19T03:28:56;9.02;;;5.63;;
21272;SDS011;36726;52.328;10.552;2022-08-19T03:31:24;6.93;;;5.28;;
21272;SDS011;36726;52.328;10.552;2022-08-19T03:34:14;7.95;;;5.25;;
21272;SDS011;36726;52.328;10.552;2022-08-19T03:36:44;6.45;;;4.88;;
21272;SDS011;36726;52.328;10.552;2022-08-19T03:39:12;8.73;;;5.45;;
21272;SDS011;36726;52.328;10.552;2022-08-19T03:41:40;7.60;;;5.18;;
21272;SDS011;36726;52.328;10.552;2022-08-19T03:44:15;8.65;;;5.57;;
21272;SDS011;36726;52.328;10.552;2022-08-19T03:46:52;5.50;;;4.70;;
21272;SDS011;36726;52.328;10.552;2022-08-19T03:49:21;10.57;;;5.25;;
21272;SDS011;36726;52.328;10.552;2022-08-19T03:51:54;7.13;;;5.32;;
21272;SDS011;36726;52.328;10.552;2022-08-19T03:54:23;8.55;;;5.15;;
21272;SDS011;36726;52.328;10.552;2022-08-19T03:56:52;9.10;;;5.30;;
21272;SDS011;36726;52.328;10.552;2022-08-19T03:59:30;9.98;;;5.88;;
21272;SDS011;36726;52.328;10.552;2022-08-19T04:02:00;7.95;;;5.38;;
21272;SDS011;36726;52.328;10.552;2022-08-19T04:04:29;8.13;;;6.07;;
21272;SDS011;36726;52.328;10.552;2022-08-19T04:06:57;9.80;;;6.35;;
21272;SDS011;36726;52.328;10.552;2022-08-19T04:09:24;9.35;;;5.85;;
21272;SDS011;36726;52.328;10.552;2022-08-19T04:11:52;7.93;;;4.97;;
21272;SDS011;36726;52.328;10.552;2022-08-19T04:14:21;8.05;;;5.80;;
21272;SDS011;36726;52.328;10.552;2022-08-19T04:16:51;7.47;;;5.80;;
21272;SDS011;36726;52.328;10.552;2022-08-19T04:19:18;8.00;;;5.53;;
21272;SDS011;36726;52.328;10.552;2022-08-19T04:21:47;8.20;;;5.15;;
21272;SDS011;36726;52.328;10.552;2022-08-19T04:24:15;7.78;;;5.50;;
21272;SDS011;36726;52.328;10.552;2022-08-19T04:26:42;9.98;;;6.00;;
21272;SDS011;36726;52.328;10.552;2022-08-19T04:29:11;8.07;;;5.65;;
21272;SDS011;36726;52.328;10.552;2022-08-19T04:31:41;7.60;;;5.72;;
21272;SDS011;36726;52.328;10.552;2022-08-19T04:34:11;7.95;;;5.68;;
21272;SDS011;36726;52.328;10.552;2022-08-19T04:36:40;8.18;;;5.20;;
21272;SDS011;36726;52.328;10.552;2022-08-19T04:39:09;7.22;;;5.60;;
21272;SDS011;36726;52.328;10.552;2022-08-19T04:41:43;10.65;;;6.78;;
21272;SDS011;36726;52.328;10.552;2022-08-19T04:44:34;9.43;;;5.95;;
21272;SDS011;36726;52.328;10.552;2022-08-19T04:47:11;11.23;;;6.10;;
21272;SDS011;36726;52.328;10.552;2022-08-19T04:49:38;6.88;;;5.38;;
21272;SDS011;36726;52.328;10.552;2022-08-19T04:52:04;7.97;;;5.22;;
21272;SDS011;36726;52.328;10.552;2022-08-19T04:54:31;8.57;;;5.32;;
21272;SDS011;36726;52.328;10.552;2022-08-19T04:57:04;9.45;;;5.47;;
21272;SDS011;36726;52.328;10.552;2022-08-19T04:59:33;9.18;;;5.32;;
21272;SDS011;36726;52.328;10.552;2022-08-19T05:02:00;11.48;;;5.15;;
21272;SDS011;36726;52.328;10.552;2022-08-19T05:04:27;8.60;;;5.20;;
21272;SDS011;36726;52.328;10.552;2022-08-19T05:06:56;9.90;;;5.85;;
21272;SDS011;36726;52.328;10.552;2022-08-19T05:09:26;6.82;;;5.13;;
21272;SDS011;36726;52.328;10.552;2022-08-19T05:12:14;8.60;;;5.25;;
21272;SDS011;36726;52.328;10.552;2022-08-19T05:14:42;7.50;;;5.25;;
21272;SDS011;36726;52.328;10.552;2022-08-19T05:17:08;7.65;;;5.20;;
21272;SDS011;36726;52.328;10.552;2022-08-19T05:19:55;9.38;;;5.50;;
21272;SDS011;36726;52.328;10.552;2022-08-19T05:22:41;8.45;;;4.97;;
21272;SDS011;36726;52.328;10.552;2022-08-19T05:25:10;9.73;;;5.22;;
21272;SDS011;36726;52.328;10.552;2022-08-19T05:27:39;7.30;;;5.30;;
21272;SDS011;36726;52.328;10.552;2022-08-19T05:30:07;12.25;;;5.88;;
21272;SDS011;36726;52.328;10.552;2022-08-19T05:32:35;8.88;;;5.38;;
21272;SDS011;36726;52.328;10.552;2022-08-19T05:35:02;6.68;;;4.97;;
21272;SDS011;36726;52.328;10.552;2022-08-19T05:37:30;10.13;;;5.97;;
21272;SDS011;36726;52.328;10.552;2022-08-19T05:39:56;8.82;;;5.47;;
21272;SDS011;36726;52.328;10.552;2022-08-19T05:42:23;10.55;;;5.72;;
21272;SDS011;36726;52.328;10.552;2022-08-19T05:44:50;7.80;;;5.20;;
21272;SDS011;36726;52.328;10.552;2022-08-19T05:47:17;9.68;;;5.40;;
21272;SDS011;36726;52.328;10.552;2022-08-19T05:49:46;10.10;;;6.43;;
21272;SDS011;36726;52.328;10.552;2022-08-19T05:52:16;7.78;;;5.68;;
21272;SDS011;36726;52.328;10.552;2022-08-19T05:54:44;6.40;;;5.18;;
21272;SDS011;36726;52.328;10.552;2022-08-19T05:57:17;7.00;;;5.05;;
21272;SDS011;36726;52.328;10.552;2022-08-19T05:59:44;8.68;;;5.72;;
21272;SDS011;36726;52.328;10.552;2022-08-19T06:02:23;7.85;;;5.43;;
21272;SDS011;36726;52.328;10.552;2022-08-19T06:04:54;8.38;;;5.28;;
21272;SDS011;36726;52.328;10.552;2022-08-19T06:07:20;8.25;;;5.95;;
21272;SDS011;36726;52.328;10.552;2022-08-19T06:09:47;7.68;;;5.88;;
21272;SDS011;36726;52.328;10.552;2022-08-19T06:12:29;8.77;;;5.78;;
21272;SDS011;36726;52.328;10.552;2022-08-19T06:15:11;9.52;;;5.97;;
21272;SDS011;36726;52.328;10.552;2022-08-19T06:17:39;7.00;;;5.13;;
21272;SDS011;36726;52.328;10.552;2022-08-19T06:20:09;6.32;;;5.25;;
21272;SDS011;36726;52.328;10.552;2022-08-19T06:22:40;6.80;;;5.32;;
21272;SDS011;36726;52.328;10.552;2022-08-19T06:25:08;6.85;;;5.00;;
21272;SDS011;36726;52.328;10.552;2022-08-19T06:27:37;6.97;;;5.22;;
21272;SDS011;36726;52.328;10.552;2022-08-19T06:30:24;6.60;;;4.60;;
21272;SDS011;36726;52.328;10.552;2022-08-19T06:32:50;6.32;;;5.15;;
21272;SDS011;36726;52.328;10.552;2022-08-19T06:35:18;5.80;;;4.53;;
21272;SDS011;36726;52.328;10.552;2022-08-19T06:37:44;7.82;;;5.28;;
21272;SDS011;36726;52.328;10.552;2022-08-19T06:40:11;6.97;;;5.18;;
21272;SDS011;36726;52.328;10.552;2022-08-19T06:42:38;7.72;;;5.18;;
21272;SDS011;36726;52.328;10.552;2022-08-19T06:45:14;7.22;;;4.82;;
21272;SDS011;36726;52.328;10.552;2022-08-19T06:47:41;8.77;;;4.93;;
21272;SDS011;36726;52.328;10.552;2022-08-19T06:50:15;6.70;;;4.72;;
21272;SDS011;36726;52.328;10.552;2022-08-19T06:52:41;6.43;;;4.63;;
21272;SDS011;36726;52.328;10.552;2022-08-19T06:55:08;7.28;;;4.75;;
21272;SDS011;36726;52.328;10.552;2022-08-19T06:57:35;7.95;;;4.47;;
21272;SDS011;36726;52.328;10.552;2022-08-19T07:00:02;5.45;;;4.10;;
21272;SDS011;36726;52.328;10.552;2022-08-19T07:02:33;4.93;;;4.18;;
21272;SDS011;36726;52.328;10.552;2022-08-19T07:05:06;5.55;;;4.32;;
21272;SDS011;36726;52.328;10.552;2022-08-19T07:07:33;5.85;;;4.45;;
21272;SDS011;36726;52.328;10.552;2022-08-19T07:10:01;5.22;;;4.32;;
21272;SDS011;36726;52.328;10.552;2022-08-19T07:12:31;4.90;;;3.90;;
21272;SDS011;36726;52.328;10.552;2022-08-19T07:15:03;4.60;;;3.75;;
21272;SDS011;36726;52.328;10.552;2022-08-19T07:17:30;4.22;;;3.42;;
21272;SDS011;36726;52.328;10.552;2022-08-19T07:19:59;5.43;;;4.13;;
21272;SDS011;36726;52.328;10.552;2022-08-19T07:22:34;3.85;;;3.10;;
21272;SDS011;36726;52.328;10.552;2022-08-19T07:25:01;4.95;;;3.80;;
21272;SDS011;36726;52.328;10.552;2022-08-19T07:27:29;5.13;;;3.95;;
21272;SDS011;36726;52.328;10.552;2022-08-19T07:29:58;4.15;;;3.33;;
21272;SDS011;36726;52.328;10.552;2022-08-19T07:32:25;4.05;;;3.40;;
21272;SDS011;36726;52.328;10.552;2022-08-19T07:34:57;5.32;;;3.80;;
21272;SDS011;36726;52.328;10.552;2022-08-19T07:37:26;5.90;;;4.10;;
21272;SDS011;36726;52.328;10.552;2022-08-19T07:39:58;6.55;;;3.33;;
21272;SDS011;36726;52.328;10.552;2022-08-19T07:42:26;5.88;;;3.75;;
21272;SDS011;36726;52.328;10.552;2022-08-19T07:44:54;6.38;;;3.38;;
21272;SDS011;36726;52.328;10.552;2022-08-19T07:47:20;3.45;;;2.92;;
21272;SDS011;36726;52.328;10.552;2022-08-19T07:50:08;4.68;;;2.80;;
21272;SDS011;36726;52.328;10.552;2022-08-19T07:52:37;4.90;;;3.70;;
21272;SDS011;36726;52.328;10.552;2022-08-19T07:55:06;6.38;;;3.47;;
21272;SDS011;36726;52.328;10.552;2022-08-19T07:57:54;4.50;;;3.60;;
21272;SDS011;36726;52.328;10.552;2022-08-19T08:00:21;5.18;;;3.60;;
21272;SDS011;36726;52.328;10.552;2022-08-19T08:02:50;4.40;;;3.42;;
21272;SDS011;36726;52.328;10.552;2022-08-19T08:05:20;4.03;;;2.92;;
21272;SDS011;36726;52.328;10.552;2022-08-19T08:08:09;5.93;;;3.55;;
21272;SDS011;36726;52.328;10.552;2022-08-19T08:10:54;3.92;;;3.25;;
21272;SDS011;36726;52.328;10.552;2022-08-19T08:13:23;5.10;;;3.10;;
21272;SDS011;36726;52.328;10.552;2022-08-19T08:15:50;5.13;;;3.10;;
21272;SDS011;36726;52.328;10.552;2022-08-19T08:18:19;3.95;;;2.85;;
21272;SDS011;36726;52.328;10.552;2022-08-19T08:20:46;4.05;;;3.65;;
21272;SDS011;36726;52.328;10.552;2022-08-19T08:23:13;6.05;;;3.33;;
21272;SDS011;36726;52.328;10.552;2022-08-19T08:25:55;5.80;;;3.28;;
21272;SDS011;36726;52.328;10.552;2022-08-19T08:28:24;3.60;;;3.05;;
21272;SDS011;36726;52.328;10.552;2022-08-19T08:30:55;3.45;;;3.08;;
21272;SDS011;36726;52.328;10.552;2022-08-19T08:33:24;4.60;;;2.72;;
21272;SDS011;36726;52.328;10.552;2022-08-19T08:36:06;5.13;;;2.97;;
21272;SDS011;36726;52.328;10.552;2022-08-19T08:38:33;10.35;;;3.13;;
21272;SDS011;36726;52.328;10.552;2022-08-19T08:41:14;3.53;;;3.03;;
21272;SDS011;36726;52.328;10.552;2022-08-19T08:43:49;3.88;;;2.90;;
21272;SDS011;36726;52.328;10.552;2022-08-19T08:46:27;5.13;;;2.60;;
21272;SDS011;36726;52.328;10.552;2022-08-19T08:49:07;5.07;;;3.10;;
21272;SDS011;36726;52.328;10.552;2022-08-19T08:51:51;4.22;;;3.05;;
21272;SDS011;36726;52.328;10.552;2022-08-19T08:54:25;4.95;;;2.90;;
21272;SDS011;36726;52.328;10.552;2022-08-19T08:57:27;3.47;;;2.75;;
21272;SDS011;36726;52.328;10.552;2022-08-19T09:00:08;3.25;;;2.38;;
21272;SDS011;36726;52.328;10.552;2022-08-19T09:02:40;4.18;;;2.70;;
21272;SDS011;36726;52.328;10.552;2022-08-19T09:05:09;4.40;;;3.03;;
21272;SDS011;36726;52.328;10.552;2022-08-19T09:08:02;7.65;;;2.85;;
21272;SDS011;36726;52.328;10.552;2022-08-19T09:10:43;3.42;;;2.72;;
21272;SDS011;36726;52.328;10.552;2022-08-19T09:15:56;3.00;;;2.65;;
21272;SDS011;36726;52.328;10.552;2022-08-19T09:18:48;3.45;;;2.78;;
21272;SDS011;36726;52.328;10.552;2022-08-19T09:21:20;3.63;;;3.10;;
21272;SDS011;36726;52.328;10.552;2022-08-19T09:23:58;4.13;;;2.72;;
21272;SDS011;36726;52.328;10.552;2022-08-19T09:26:25;3.80;;;3.28;;
21272;SDS011;36726;52.328;10.552;2022-08-19T09:29:12;3.60;;;2.90;;
21272;SDS011;36726;52.328;10.552;2022-08-19T09:31:39;4.40;;;2.85;;
21272;SDS011;36726;52.328;10.552;2022-08-19T09:34:06;2.67;;;2.45;;
21272;SDS011;36726;52.328;10.552;2022-08-19T09:36:46;3.17;;;2.55;;
21272;SDS011;36726;52.328;10.552;2022-08-19T09:39:13;2.85;;;2.45;;
21272;SDS011;36726;52.328;10.552;2022-08-19T09:41:41;5.78;;;3.20;;
21272;SDS011;36726;52.328;10.552;2022-08-19T09:44:14;4.28;;;3.03;;
21272;SDS011;36726;52.328;10.552;2022-08-19T09:46:40;4.38;;;2.80;;
21272;SDS011;36726;52.328;10.552;2022-08-19T09:49:07;6.97;;;3.40;;
21272;SDS011;36726;52.328;10.552;2022-08-19T09:51:33;3.50;;;2.80;;
21272;SDS011;36726;52.328;10.552;2022-08-19T09:54:01;3.03;;;2.72;;
21272;SDS011;36726;52.328;10.552;2022-08-19T09:56:30;4.75;;;2.80;;
21272;SDS011;36726;52.328;10.552;2022-08-19T09:58:59;6.80;;;3.00;;
21272;SDS011;36726;52.328;10.552;2022-08-19T10:01:28;4.40;;;3.50;;
21272;SDS011;36726;52.328;10.552;2022-08-19T10:03:56;4.65;;;3.13;;
21272;SDS011;36726;52.328;10.552;2022-08-19T10:06:26;4.70;;;3.30;;
21272;SDS011;36726;52.328;10.552;2022-08-19T10:09:12;4.95;;;3.60;;
21272;SDS011;36726;52.328;10.552;2022-08-19T10:11:40;4.63;;;3.17;;
21272;SDS011;36726;52.328;10.552;2022-08-19T10:14:19;4.90;;;3.63;;
21272;SDS011;36726;52.328;10.552;2022-08-19T10:16:48;7.47;;;3.63;;
21272;SDS011;36726;52.328;10.552;2022-08-19T10:19:16;4.75;;;3.22;;
21272;SDS011;36726;52.328;10.552;2022-08-19T10:21:51;3.67;;;3.38;;
21272;SDS011;36726;52.328;10.552;2022-08-19T10:24:19;3.80;;;3.30;;
21272;SDS011;36726;52.328;10.552;2022-08-19T10:26:46;5.03;;;4.03;;
21272;SDS011;36726;52.328;10.552;2022-08-19T10:29:24;6.47;;;3.80;;
21272;SDS011;36726;52.328;10.552;2022-08-19T10:31:58;3.97;;;3.47;;
21272;SDS011;36726;52.328;10.552;2022-08-19T10:34:35;6.38;;;4.20;;
21272;SDS011;36726;52.328;10.552;2022-08-19T10:37:15;4.95;;;3.70;;
21272;SDS011;36726;52.328;10.552;2022-08-19T10:39:56;3.35;;;2.88;;
21272;SDS011;36726;52.328;10.552;2022-08-19T10:42:23;3.47;;;3.15;;
21272;SDS011;36726;52.328;10.552;2022-08-19T10:44:50;6.22;;;3.85;;
21272;SDS011;36726;52.328;10.552;2022-08-19T10:47:17;5.10;;;3.65;;
21272;SDS011;36726;52.328;10.552;2022-08-19T10:49:51;6.35;;;4.18;;
21272;SDS011;36726;52.328;10.552;2022-08-19T10:52:39;6.35;;;4.40;;
21272;SDS011;36726;52.328;10.552;2022-08-19T10:55:17;6.20;;;3.30;;
21272;SDS011;36726;52.328;10.552;2022-08-19T10:58:09;3.45;;;3.15;;
21272;SDS011;36726;52.328;10.552;2022-08-19T11:00:37;5.80;;;4.05;;
21272;SDS011;36726;52.328;10.552;2022-08-19T11:03:03;8.50;;;4.53;;
21272;SDS011;36726;52.328;10.552;2022-08-19T11:05:30;7.22;;;3.30;;
21272;SDS011;36726;52.328;10.552;2022-08-19T11:08:05;3.70;;;3.00;;
21272;SDS011;36726;52.328;10.552;2022-08-19T11:10:48;4.38;;;2.95;;
21272;SDS011;36726;52.328;10.552;2022-08-19T11:13:16;4.45;;;3.67;;
21272;SDS011;36726;52.328;10.552;2022-08-19T11:15:42;4.07;;;3.42;;
21272;SDS011;36726;52.328;10.552;2022-08-19T11:18:10;4.18;;;3.00;;
21272;SDS011;36726;52.328;10.552;2022-08-19T11:20:38;6.47;;;3.05;;
21272;SDS011;36726;52.328;10.552;2022-08-19T11:23:05;4.35;;;3.28;;
21272;SDS011;36726;52.328;10.552;2022-08-19T11:25:32;4.63;;;3.42;;
21272;SDS011;36726;52.328;10.552;2022-08-19T11:27:59;5.03;;;3.83;;
21272;SDS011;36726;52.328;10.552;2022-08-19T11:30:26;4.50;;;3.20;;
21272;SDS011;36726;52.328;10.552;2022-08-19T11:32:54;3.10;;;2.58;;
21272;SDS011;36726;52.328;10.552;2022-08-19T11:35:20;5.25;;;3.47;;
21272;SDS011;36726;52.328;10.552;2022-08-19T11:37:49;4.53;;;3.80;;
21272;SDS011;36726;52.328;10.552;2022-08-19T11:40:16;4.40;;;3.50;;
21272;SDS011;36726;52.328;10.552;2022-08-19T11:42:43;4.18;;;3.50;;
21272;SDS011;36726;52.328;10.552;2022-08-19T11:45:22;3.22;;;2.67;;
21272;SDS011;36726;52.328;10.552;2022-08-19T11:47:50;4.20;;;3.13;;
21272;SDS011;36726;52.328;10.552;2022-08-19T11:50:16;4.03;;;2.85;;
21272;SDS011;36726;52.328;10.552;2022-08-19T11:52:44;3.80;;;3.05;;
21272;SDS011;36726;52.328;10.552;2022-08-19T11:55:12;3.13;;;2.65;;
21272;SDS011;36726;52.328;10.552;2022-08-19T11:57:40;4.68;;;2.85;;
21272;SDS011;36726;52.328;10.552;2022-08-19T12:00:10;3.13;;;2.50;;
21272;SDS011;36726;52.328;10.552;2022-08-19T12:02:39;5.22;;;3.15;;
21272;SDS011;36726;52.328;10.552;2022-08-19T12:05:06;4.95;;;2.95;;
21272;SDS011;36726;52.328;10.552;2022-08-19T12:07:37;4.32;;;2.70;;
21272;SDS011;36726;52.328;10.552;2022-08-19T12:10:04;3.92;;;2.70;;
21272;SDS011;36726;52.328;10.552;2022-08-19T12:12:31;3.97;;;2.80;;
21272;SDS011;36726;52.328;10.552;2022-08-19T12:14:58;4.18;;;2.80;;
21272;SDS011;36726;52.328;10.552;2022-08-19T12:17:25;5.70;;;3.22;;
21272;SDS011;36726;52.328;10.552;2022-08-19T12:19:53;4.43;;;2.83;;
21272;SDS011;36726;52.328;10.552;2022-08-19T12:22:19;2.97;;;2.67;;
21272;SDS011;36726;52.328;10.552;2022-08-19T12:24:47;3.30;;;2.70;;
21272;SDS011;36726;52.328;10.552;2022-08-19T12:27:16;4.25;;;2.63;;
21272;SDS011;36726;52.328;10.552;2022-08-19T12:30:03;3.38;;;2.58;;
21272;SDS011;36726;52.328;10.552;2022-08-19T12:32:32;3.05;;;2.65;;
21272;SDS011;36726;52.328;10.552;2022-08-19T12:34:59;5.05;;;2.97;;
21272;SDS011;36726;52.328;10.552;2022-08-19T12:37:26;3.88;;;2.65;;
21272;SDS011;36726;52.328;10.552;2022-08-19T12:39:52;3.80;;;2.58;;
21272;SDS011;36726;52.328;10.552;2022-08-19T12:42:19;2.83;;;2.53;;
21272;SDS011;36726;52.328;10.552;2022-08-19T12:44:48;5.38;;;2.60;;
21272;SDS011;36726;52.328;10.552;2022-08-19T12:47:14;2.58;;;2.38;;
21272;SDS011;36726;52.328;10.552;2022-08-19T12:49:41;2.83;;;2.55;;
21272;SDS011;36726;52.328;10.552;2022-08-19T12:52:21;7.60;;;2.60;;
21272;SDS011;36726;52.328;10.552;2022-08-19T12:54:49;2.75;;;2.47;;
21272;SDS011;36726;52.328;10.552;2022-08-19T12:57:20;3.72;;;2.83;;
21272;SDS011;36726;52.328;10.552;2022-08-19T12:59:56;3.33;;;2.55;;
21272;SDS011;36726;52.328;10.552;2022-08-19T13:02:23;4.07;;;2.83;;
21272;SDS011;36726;52.328;10.552;2022-08-19T13:04:49;3.50;;;2.95;;
21272;SDS011;36726;52.328;10.552;2022-08-19T13:07:16;2.78;;;2.17;;
21272;SDS011;36726;52.328;10.552;2022-08-19T13:09:42;2.35;;;2.13;;
21272;SDS011;36726;52.328;10.552;2022-08-19T13:12:09;3.10;;;2.75;;
21272;SDS011;36726;52.328;10.552;2022-08-19T13:14:39;2.55;;;2.28;;
21272;SDS011;36726;52.328;10.552;2022-08-19T13:17:07;2.97;;;2.58;;
21272;SDS011;36726;52.328;10.552;2022-08-19T13:19:35;4.50;;;2.83;;
21272;SDS011;36726;52.328;10.552;2022-08-19T13:22:02;4.57;;;3.08;;
21272;SDS011;36726;52.328;10.552;2022-08-19T13:24:35;3.22;;;2.80;;
21272;SDS011;36726;52.328;10.552;2022-08-19T13:27:02;3.13;;;2.83;;
21272;SDS011;36726;52.328;10.552;2022-08-19T13:29:29;3.63;;;2.85;;
21272;SDS011;36726;52.328;10.552;2022-08-19T13:32:14;3.72;;;2.92;;
21272;SDS011;36726;52.328;10.552;2022-08-19T13:35:01;5.55;;;3.05;;
21272;SDS011;36726;52.328;10.552;2022-08-19T13:37:29;3.75;;;2.80;;
21272;SDS011;36726;52.328;10.552;2022-08-19T13:40:09;3.47;;;2.67;;
21272;SDS011;36726;52.328;10.552;2022-08-19T13:42:41;3.65;;;3.10;;
21272;SDS011;36726;52.328;10.552;2022-08-19T13:45:09;3.45;;;2.40;;
21272;SDS011;36726;52.328;10.552;2022-08-19T13:47:36;3.65;;;2.85;;
21272;SDS011;36726;52.328;10.552;2022-08-19T13:50:10;4.85;;;2.55;;
21272;SDS011;36726;52.328;10.552;2022-08-19T13:52:39;2.80;;;2.60;;
21272;SDS011;36726;52.328;10.552;2022-08-19T13:55:06;3.65;;;2.83;;
21272;SDS011;36726;52.328;10.552;2022-08-19T13:57:33;6.53;;;2.75;;
21272;SDS011;36726;52.328;10.552;2022-08-19T14:00:00;2.97;;;2.47;;
21272;SDS011;36726;52.328;10.552;2022-08-19T14:02:29;3.50;;;3.08;;
21272;SDS011;36726;52.328;10.552;2022-08-19T14:04:56;3.20;;;2.90;;
21272;SDS011;36726;52.328;10.552;2022-08-19T14:07:24;2.45;;;2.25;;
21272;SDS011;36726;52.328;10.552;2022-08-19T14:09:51;4.28;;;2.85;;
21272;SDS011;36726;52.328;10.552;2022-08-19T14:12:18;3.45;;;2.85;;
21272;SDS011;36726;52.328;10.552;2022-08-19T14:14:54;2.67;;;2.47;;
21272;SDS011;36726;52.328;10.552;2022-08-19T14:17:21;3.95;;;2.78;;
21272;SDS011;36726;52.328;10.552;2022-08-19T14:19:48;2.50;;;2.25;;
21272;SDS011;36726;52.328;10.552;2022-08-19T14:22:14;3.10;;;2.35;;
21272;SDS011;36726;52.328;10.552;2022-08-19T14:24:47;5.85;;;3.17;;
21272;SDS011;36726;52.328;10.552;2022-08-19T14:27:14;3.03;;;2.78;;
21272;SDS011;36726;52.328;10.552;2022-08-19T14:29:40;2.60;;;2.40;;
21272;SDS011;36726;52.328;10.552;2022-08-19T14:32:07;4.22;;;2.95;;
21272;SDS011;36726;52.328;10.552;2022-08-19T14:34:41;4.07;;;2.50;;
21272;SDS011;36726;52.328;10.552;2022-08-19T14:37:08;4.38;;;2.97;;
21272;SDS011;36726;52.328;10.552;2022-08-19T14:39:40;3.28;;;2.97;;
21272;SDS011;36726;52.328;10.552;2022-08-19T14:42:08;3.15;;;2.50;;
21272;SDS011;36726;52.328;10.552;2022-08-19T14:44:36;2.95;;;2.70;;
21272;SDS011;36726;52.328;10.552;2022-08-19T14:47:03;2.92;;;2.60;;
21272;SDS011;36726;52.328;10.552;2022-08-19T14:49:30;3.47;;;3.10;;
21272;SDS011;36726;52.328;10.552;2022-08-19T14:52:00;6.15;;;3.40;;
21272;SDS011;36726;52.328;10.552;2022-08-19T14:54:27;3.35;;;3.05;;
21272;SDS011;36726;52.328;10.552;2022-08-19T14:56:55;3.60;;;2.85;;
21272;SDS011;36726;52.328;10.552;2022-08-19T14:59:22;6.78;;;3.20;;
21272;SDS011;36726;52.328;10.552;2022-08-19T15:01:49;4.07;;;3.13;;